Time;durP1;ratioP1;P1;durP2;ratioP2;P2;SDS_P1;SDS_P2;PMS_P1;PMS_P2;Temp;Humidity;BMP_temperature;BMP_pressure;BME280_temperature;BME280_humidity;BME280_pressure;Samples;Min_cycle;Max_cycle;Signal;HPM_P1;HPM_P2
2022/08/25 00:01:13;;;;;;;1.52;1.23;;;23.40;99.90;;;;;;4953336;29;20218;-76
2022/08/25 00:03:40;;;;;;;1.20;1.10;;;23.40;99.90;;;;;;4952876;28;20529;-75
2022/08/25 00:06:09;;;;;;;1.27;1.17;;;23.50;99.90;;;;;;4953042;29;20219;-75
2022/08/25 00:08:37;;;;;;;1.30;1.20;;;23.50;99.90;;;;;;4954373;29;20258;-76
2022/08/25 00:11:05;;;;;;;1.73;1.17;;;23.40;99.90;;;;;;4953665;28;20230;-76
2022/08/25 00:13:32;;;;;;;1.20;1.10;;;23.30;99.90;;;;;;4953928;28;20309;-75
2022/08/25 00:16:00;;;;;;;1.42;1.40;;;23.30;99.90;;;;;;4952843;28;20712;-74
2022/08/25 00:18:27;;;;;;;1.27;1.17;;;23.20;99.90;;;;;;4952234;28;20756;-72
2022/08/25 00:20:55;;;;;;;1.40;1.30;;;23.10;99.90;;;;;;4949888;28;20218;-73
2022/08/25 00:23:23;;;;;;;1.83;1.40;;;22.90;99.90;;;;;;4954356;28;20237;-75
2022/08/25 00:25:50;;;;;;;1.60;1.50;;;22.60;99.90;;;;;;4952476;28;20241;-74
2022/08/25 00:28:18;;;;;;;1.20;1.10;;;22.50;99.90;;;;;;4952652;29;20289;-74
2022/08/25 00:30:45;;;;;;;1.70;1.30;;;22.50;99.90;;;;;;4953508;28;20225;-73
2022/08/25 00:33:13;;;;;;;1.58;1.48;;;22.60;99.90;;;;;;4954432;28;20221;-75
2022/08/25 00:35:41;;;;;;;1.50;1.40;;;22.80;99.90;;;;;;4952827;28;20225;-74
2022/08/25 00:38:09;;;;;;;1.10;1.10;;;22.90;99.90;;;;;;4951939;28;20198;-74
2022/08/25 00:40:38;;;;;;;2.33;1.27;;;23.00;99.90;;;;;;4951481;29;20222;-74
2022/08/25 00:43:06;;;;;;;1.40;1.30;;;23.00;99.90;;;;;;4949888;28;20230;-74
2022/08/25 00:45:34;;;;;;;1.33;1.23;;;23.10;99.90;;;;;;4951246;28;20226;-75
2022/08/25 00:48:01;;;;;;;1.73;1.50;;;23.00;99.90;;;;;;4951202;29;20209;-73
2022/08/25 00:50:29;;;;;;;1.05;1.05;;;23.00;99.90;;;;;;4952166;28;20226;-75
2022/08/25 00:53:00;;;;;;;1.30;1.20;;;23.10;99.90;;;;;;4953046;28;20219;-73
2022/08/25 00:55:29;;;;;;;1.52;1.00;;;23.10;99.90;;;;;;4950757;28;20642;-74
2022/08/25 00:58:06;;;;;;;1.40;1.30;;;23.20;99.90;;;;;;4951305;28;20202;-73
2022/08/25 01:00:36;;;;;;;1.30;1.20;;;23.20;99.90;;;;;;4951493;28;20217;-74
2022/08/25 01:03:04;;;;;;;1.15;1.10;;;23.20;99.90;;;;;;4949886;28;20285;-72
2022/08/25 01:05:31;;;;;;;1.45;1.20;;;23.20;99.90;;;;;;4950115;28;20273;-74
2022/08/25 01:08:01;;;;;;;1.33;1.23;;;23.10;99.90;;;;;;4951277;29;20194;-74
2022/08/25 01:10:30;;;;;;;1.77;1.30;;;23.20;99.90;;;;;;4949712;28;20261;-75
2022/08/25 01:13:05;;;;;;;1.83;1.45;;;23.20;99.90;;;;;;4951127;28;20267;-73
2022/08/25 01:15:33;;;;;;;1.35;1.25;;;23.10;99.90;;;;;;4952009;28;20317;-72
2022/08/25 01:18:00;;;;;;;1.50;1.40;;;23.10;99.90;;;;;;4951944;29;20201;-72
2022/08/25 01:20:31;;;;;;;1.33;1.23;;;23.10;99.90;;;;;;4951200;28;20532;-74
2022/08/25 01:23:00;;;;;;;1.25;1.23;;;23.10;99.90;;;;;;4953386;28;20232;-74
2022/08/25 01:25:36;;;;;;;1.30;1.20;;;23.00;99.90;;;;;;4951481;29;20221;-73
2022/08/25 01:28:04;;;;;;;1.20;1.20;;;22.80;99.90;;;;;;4946299;28;20917;-73
2022/08/25 01:30:31;;;;;;;1.25;1.15;;;22.50;99.90;;;;;;4949818;28;20769;-73
2022/08/25 01:32:58;;;;;;;1.33;1.23;;;22.40;99.90;;;;;;4951744;28;20595;-74
2022/08/25 01:35:25;;;;;;;1.52;1.40;;;22.40;99.90;;;;;;4949446;28;20222;-71
2022/08/25 01:37:52;;;;;;;1.30;1.23;;;22.60;99.90;;;;;;4954240;28;20201;-74
2022/08/25 01:40:21;;;;;;;1.00;1.00;;;22.60;99.90;;;;;;4951093;28;20226;-73
2022/08/25 01:43:01;;;;;;;1.50;1.15;;;22.70;99.90;;;;;;4950821;28;20254;-72
2022/08/25 01:45:29;;;;;;;1.40;1.30;;;22.80;99.90;;;;;;4950750;29;20288;-73
2022/08/25 01:47:56;;;;;;;1.52;1.42;;;22.80;99.90;;;;;;4951209;28;20226;-73
2022/08/25 01:50:24;;;;;;;1.60;1.50;;;22.80;99.90;;;;;;4950744;28;20214;-74
2022/08/25 01:52:55;;;;;;;4.18;1.55;;;22.80;99.90;;;;;;4953748;28;20279;-74
2022/08/25 01:55:24;;;;;;;1.45;1.20;;;22.90;99.90;;;;;;4951179;28;20270;-76
2022/08/25 01:57:51;;;;;;;1.27;1.08;;;22.80;99.90;;;;;;4951593;29;20633;-75
2022/08/25 02:00:19;;;;;;;1.20;1.10;;;22.80;99.90;;;;;;4950773;28;20270;-75
2022/08/25 02:02:46;;;;;;;1.27;1.17;;;22.80;99.90;;;;;;4949847;28;20230;-75
2022/08/25 02:05:15;;;;;;;1.73;1.50;;;22.80;99.90;;;;;;4950200;28;20222;-75
2022/08/25 02:07:42;;;;;;;1.67;1.58;;;22.80;99.90;;;;;;4948076;28;20269;-76
2022/08/25 02:10:12;;;;;;;1.50;1.40;;;22.70;99.90;;;;;;4954518;28;20775;-74
2022/08/25 02:12:41;;;;;;;2.00;1.20;;;22.60;99.90;;;;;;4958677;28;20486;-75
2022/08/25 02:15:09;;;;;;;1.10;1.00;;;22.50;99.90;;;;;;4956360;28;20236;-73
2022/08/25 02:17:36;;;;;;;1.40;1.30;;;22.40;99.90;;;;;;4952985;29;20604;-75
2022/08/25 02:20:04;;;;;;;1.33;1.30;;;22.30;99.90;;;;;;4953218;28;20222;-75
2022/08/25 02:22:31;;;;;;;1.40;1.30;;;22.30;99.90;;;;;;4955661;28;20291;-76
2022/08/25 02:24:59;;;;;;;1.40;1.30;;;22.30;99.90;;;;;;4954606;28;20218;-75
2022/08/25 02:27:27;;;;;;;1.50;1.40;;;22.20;99.90;;;;;;4956271;29;20257;-76
2022/08/25 02:29:55;;;;;;;1.40;1.30;;;22.20;99.90;;;;;;4954074;28;20740;-75
2022/08/25 02:32:22;;;;;;;1.40;1.30;;;22.20;99.90;;;;;;4955048;28;20218;-77
2022/08/25 02:34:49;;;;;;;1.50;1.40;;;22.20;99.90;;;;;;4952800;28;20227;-75
2022/08/25 02:37:16;;;;;;;1.63;1.52;;;22.20;99.90;;;;;;4955376;28;20201;-76
2022/08/25 02:39:43;;;;;;;2.25;1.40;;;22.20;99.90;;;;;;4954164;28;20225;-75
2022/08/25 02:42:10;;;;;;;1.73;1.40;;;22.10;99.90;;;;;;4954964;28;20315;-75
2022/08/25 02:44:37;;;;;;;1.40;1.25;;;22.10;99.90;;;;;;4955001;28;20712;-75
2022/08/25 02:47:06;;;;;;;2.55;1.50;;;22.10;99.90;;;;;;4954296;28;20899;-75
2022/08/25 02:49:34;;;;;;;1.40;1.30;;;22.20;99.90;;;;;;4954900;28;20739;-74
2022/08/25 02:52:01;;;;;;;1.50;1.40;;;22.10;99.90;;;;;;4956444;28;20601;-75
2022/08/25 02:54:28;;;;;;;1.33;1.23;;;22.10;99.90;;;;;;4955698;28;20779;-75
2022/08/25 02:56:55;;;;;;;2.15;1.27;;;22.10;99.90;;;;;;4955532;28;20198;-74
2022/08/25 02:59:22;;;;;;;1.40;1.30;;;22.10;99.90;;;;;;4955112;28;20194;-75
2022/08/25 03:01:49;;;;;;;2.30;1.40;;;22.10;99.90;;;;;;4955965;29;20222;-75
2022/08/25 03:04:18;;;;;;;1.48;1.38;;;22.10;99.90;;;;;;4959494;28;20198;-77
2022/08/25 03:06:45;;;;;;;1.60;1.50;;;22.10;99.90;;;;;;4965690;28;20225;-75
2022/08/25 03:09:12;;;;;;;1.38;1.27;;;22.10;99.90;;;;;;4955410;29;20657;-74
2022/08/25 03:11:39;;;;;;;1.45;1.35;;;22.10;99.90;;;;;;4955308;28;20218;-75
2022/08/25 03:14:08;;;;;;;1.70;1.58;;;22.00;99.90;;;;;;4956063;29;20198;-75
2022/08/25 03:16:35;;;;;;;1.30;1.20;;;22.00;99.90;;;;;;4955309;29;20211;-74
2022/08/25 03:19:02;;;;;;;2.45;1.80;;;22.00;99.90;;;;;;4951392;28;20700;-74
2022/08/25 03:21:31;;;;;;;1.88;1.60;;;22.00;99.90;;;;;;4953447;28;20215;-76
2022/08/25 03:24:00;;;;;;;1.50;1.40;;;21.90;99.90;;;;;;4954888;28;20225;-75
2022/08/25 03:29:12;;;;;;;1.40;1.30;;;21.90;99.90;;;;;;4952620;28;20205;-75
2022/08/25 03:31:41;;;;;;;1.42;1.38;;;21.80;99.90;;;;;;4953943;28;20629;-75
2022/08/25 03:34:08;;;;;;;2.17;1.27;;;21.80;99.90;;;;;;4954644;28;20198;-76
2022/08/25 03:36:37;;;;;;;1.35;1.25;;;21.80;99.90;;;;;;4956185;28;20287;-74
2022/08/25 03:39:05;;;;;;;1.38;1.27;;;21.80;99.90;;;;;;4953789;28;20225;-76
2022/08/25 03:41:32;;;;;;;1.50;1.15;;;21.80;99.90;;;;;;4952310;28;20217;-74
2022/08/25 03:44:00;;;;;;;1.60;1.50;;;21.80;99.90;;;;;;4954449;28;20253;-76
2022/08/25 03:46:31;;;;;;;2.15;1.40;;;21.70;99.90;;;;;;4948449;28;20219;-75
2022/08/25 03:49:00;;;;;;;1.63;1.52;;;21.70;99.90;;;;;;4953713;28;20194;-75
2022/08/25 03:51:32;;;;;;;1.27;1.17;;;21.70;99.90;;;;;;4951493;28;20214;-74
2022/08/25 03:54:01;;;;;;;1.52;1.42;;;21.70;99.90;;;;;;4954721;28;20202;-74
2022/08/25 03:56:28;;;;;;;1.40;1.30;;;21.70;99.90;;;;;;4952144;28;20230;-74
2022/08/25 03:58:55;;;;;;;1.50;1.40;;;21.70;99.90;;;;;;4954161;29;20205;-74
2022/08/25 04:01:23;;;;;;;2.97;1.77;;;21.70;99.90;;;;;;4950580;28;20222;-76
2022/08/25 04:03:50;;;;;;;1.50;1.40;;;21.70;99.90;;;;;;4954317;29;20205;-75
2022/08/25 04:06:19;;;;;;;2.17;1.60;;;21.60;99.90;;;;;;4951745;28;20226;-74
2022/08/25 04:08:46;;;;;;;1.60;1.50;;;21.70;99.90;;;;;;4952987;28;20195;-75
2022/08/25 04:11:17;;;;;;;1.50;1.40;;;21.60;99.90;;;;;;4951645;28;20277;-74
2022/08/25 04:13:45;;;;;;;2.03;1.70;;;21.60;99.90;;;;;;4954453;28;20241;-74
2022/08/25 04:16:13;;;;;;;1.70;1.60;;;21.60;99.90;;;;;;4951827;28;20242;-75
2022/08/25 04:18:41;;;;;;;1.70;1.60;;;21.60;99.90;;;;;;4950598;28;20194;-75
2022/08/25 04:21:09;;;;;;;1.50;1.40;;;21.60;99.90;;;;;;4953474;28;20226;-75
2022/08/25 04:23:36;;;;;;;1.70;1.60;;;21.60;99.90;;;;;;4953447;28;20230;-76
2022/08/25 04:26:08;;;;;;;1.90;1.75;;;21.60;99.90;;;;;;4956309;28;20222;-74
2022/08/25 04:28:37;;;;;;;1.65;1.55;;;21.60;99.90;;;;;;4953114;28;20719;-75
2022/08/25 04:31:06;;;;;;;1.65;1.55;;;21.60;99.90;;;;;;4950797;28;20225;-74
2022/08/25 04:33:34;;;;;;;1.73;1.63;;;21.50;99.90;;;;;;4952167;28;20730;-74
2022/08/25 04:36:01;;;;;;;1.63;1.52;;;21.60;99.90;;;;;;4948817;28;20253;-75
2022/08/25 04:38:30;;;;;;;1.70;1.60;;;21.50;99.90;;;;;;4950358;28;20198;-75
2022/08/25 04:40:58;;;;;;;1.60;1.50;;;21.50;99.90;;;;;;4951384;28;20214;-76
2022/08/25 04:43:25;;;;;;;1.50;1.40;;;21.50;99.90;;;;;;4952753;28;20226;-75
2022/08/25 04:45:54;;;;;;;1.52;1.42;;;21.40;99.90;;;;;;4947989;29;20309;-75
2022/08/25 04:48:22;;;;;;;1.50;1.40;;;21.30;99.90;;;;;;4952388;29;20301;-76
2022/08/25 04:50:49;;;;;;;1.70;1.60;;;21.20;99.90;;;;;;4950835;28;20604;-75
2022/08/25 04:53:17;;;;;;;1.52;1.42;;;21.30;99.90;;;;;;4955204;28;20269;-76
2022/08/25 04:55:45;;;;;;;2.10;1.83;;;21.30;99.90;;;;;;4952272;28;20237;-75
2022/08/25 04:58:12;;;;;;;1.85;1.70;;;21.30;99.90;;;;;;4951839;29;20578;-77
2022/08/25 05:00:39;;;;;;;1.75;1.65;;;21.30;99.90;;;;;;4951981;28;20289;-76
2022/08/25 05:03:09;;;;;;;1.92;1.60;;;21.30;99.90;;;;;;4953731;28;20226;-75
2022/08/25 05:05:37;;;;;;;1.42;1.33;;;21.30;99.90;;;;;;4953944;28;20225;-74
2022/08/25 05:08:05;;;;;;;1.55;1.40;;;21.40;99.90;;;;;;4952967;28;20273;-75
2022/08/25 05:10:32;;;;;;;1.73;1.63;;;21.40;99.90;;;;;;4952909;28;20218;-74
2022/08/25 05:12:59;;;;;;;1.92;1.80;;;21.50;99.90;;;;;;4956041;28;20222;-75
2022/08/25 05:18:13;;;;;;;1.60;1.50;;;21.90;99.90;;;;;;4950664;28;20264;-75
2022/08/25 05:20:40;;;;;;;1.42;1.30;;;22.20;99.90;;;;;;4951667;28;20281;-75
2022/08/25 05:23:07;;;;;;;1.40;1.30;;;22.40;99.90;;;;;;4970121;23;20240;-75
2022/08/25 05:25:34;;;;;;;1.65;1.55;;;22.60;99.90;;;;;;4964209;28;20240;-76
2022/08/25 05:28:02;;;;;;;1.60;1.50;;;22.70;99.90;;;;;;4969917;28;20241;-76
2022/08/25 05:30:29;;;;;;;1.75;1.60;;;22.90;99.90;;;;;;4968502;28;20233;-76
2022/08/25 05:32:56;;;;;;;2.85;1.75;;;22.80;99.90;;;;;;4966215;28;20661;-76
2022/08/25 05:35:24;;;;;;;2.30;1.70;;;22.60;99.90;;;;;;4967008;28;20220;-76
2022/08/25 05:37:51;;;;;;;1.55;1.45;;;22.60;99.90;;;;;;4972377;28;20189;-76
2022/08/25 05:40:20;;;;;;;2.65;1.65;;;22.70;99.90;;;;;;4971696;28;20217;-76
2022/08/25 05:42:47;;;;;;;1.98;1.88;;;22.90;99.90;;;;;;4972394;28;20197;-76
2022/08/25 05:45:14;;;;;;;1.95;1.70;;;23.30;99.90;;;;;;4972092;28;20237;-76
2022/08/25 05:47:41;;;;;;;1.98;1.65;;;23.50;99.90;;;;;;4974266;28;20221;-76
2022/08/25 05:50:10;;;;;;;1.60;1.50;;;23.80;99.90;;;;;;4971582;28;20217;-76
2022/08/25 05:52:38;;;;;;;2.00;1.77;;;24.00;99.90;;;;;;4971530;28;20197;-76
2022/08/25 05:55:06;;;;;;;1.60;1.50;;;24.10;99.90;;;;;;4973854;28;20221;-76
2022/08/25 05:57:34;;;;;;;1.75;1.65;;;24.10;99.90;;;;;;4974620;28;20201;-76
2022/08/25 06:00:01;;;;;;;2.15;1.77;;;24.10;99.90;;;;;;4974607;28;20813;-76
2022/08/25 06:02:44;;;;;;;1.80;1.70;;;23.80;99.90;;;;;;4977394;28;20197;-75
2022/08/25 06:05:13;;;;;;;1.83;1.70;;;23.60;99.90;;;;;;4977518;28;20301;-77
2022/08/25 06:07:42;;;;;;;2.25;2.05;;;23.50;99.90;;;;;;4977186;28;20704;-75
2022/08/25 06:10:12;;;;;;;2.95;2.00;;;23.40;99.90;;;;;;4971959;28;20225;-75
2022/08/25 06:12:43;;;;;;;2.20;2.00;;;23.40;99.90;;;;;;4973876;28;20201;-75
2022/08/25 06:15:12;;;;;;;2.03;1.83;;;23.40;99.90;;;;;;4975522;28;20228;-75
2022/08/25 06:17:41;;;;;;;1.83;1.73;;;23.30;99.90;;;;;;4978765;28;20193;-75
2022/08/25 06:20:11;;;;;;;2.13;1.92;;;23.50;99.90;;;;;;4977879;28;20217;-75
2022/08/25 06:22:39;;;;;;;2.28;2.05;;;23.80;99.90;;;;;;4981424;28;20198;-75
2022/08/25 06:25:10;;;;;;;1.90;1.80;;;24.10;99.90;;;;;;4975680;28;20229;-77
2022/08/25 06:27:38;;;;;;;2.53;2.00;;;24.40;99.90;;;;;;4978433;28;20224;-77
2022/08/25 06:30:06;;;;;;;2.25;2.05;;;24.40;99.90;;;;;;4976628;28;20217;-77
2022/08/25 06:32:35;;;;;;;1.88;1.77;;;24.30;99.90;;;;;;4971064;28;20198;-76
2022/08/25 06:35:02;;;;;;;2.05;1.60;;;24.30;99.90;;;;;;4966292;28;20234;-77
2022/08/25 06:37:29;;;;;;;2.40;2.20;;;24.30;99.90;;;;;;4972668;28;20193;-76
2022/08/25 06:39:56;;;;;;;2.20;2.00;;;24.30;99.90;;;;;;4978014;28;20225;-77
2022/08/25 06:42:25;;;;;;;1.90;1.80;;;24.30;99.90;;;;;;4975285;28;20198;-76
2022/08/25 06:44:52;;;;;;;2.10;2.00;;;24.30;99.90;;;;;;4971148;28;20319;-76
2022/08/25 06:47:19;;;;;;;2.17;1.98;;;24.40;99.90;;;;;;4976207;28;20208;-77
2022/08/25 06:49:47;;;;;;;2.55;2.03;;;24.50;99.90;;;;;;4975588;28;20217;-76
2022/08/25 06:52:14;;;;;;;2.10;2.00;;;24.70;99.90;;;;;;4972608;28;20353;-76
2022/08/25 06:54:41;;;;;;;2.03;1.92;;;24.80;99.90;;;;;;4977303;28;20280;-75
2022/08/25 06:57:09;;;;;;;2.05;1.95;;;25.00;99.90;;;;;;4981631;28;20202;-75
2022/08/25 06:59:38;;;;;;;3.90;2.20;;;25.00;99.90;;;;;;4977518;28;20214;-75
2022/08/25 07:02:06;;;;;;;2.70;1.83;;;25.10;99.90;;;;;;4978528;28;20198;-75
2022/08/25 07:04:35;;;;;;;1.83;1.73;;;25.20;99.90;;;;;;4974364;28;20268;-75
2022/08/25 07:07:03;;;;;;;3.55;2.05;;;25.40;99.90;;;;;;4975372;28;20205;-75
2022/08/25 07:09:31;;;;;;;2.30;2.10;;;25.50;99.90;;;;;;4972325;28;20230;-75
2022/08/25 07:11:58;;;;;;;1.88;1.77;;;25.70;99.90;;;;;;4973585;28;20291;-75
2022/08/25 07:14:25;;;;;;;2.15;1.80;;;25.70;99.90;;;;;;4976939;28;20316;-75
2022/08/25 07:16:53;;;;;;;2.33;2.00;;;25.70;99.90;;;;;;4978203;28;20202;-77
2022/08/25 07:19:20;;;;;;;3.08;2.08;;;25.60;99.90;;;;;;4981892;28;20197;-77
2022/08/25 07:21:50;;;;;;;2.05;1.90;;;25.50;99.90;;;;;;4978981;28;20209;-75
2022/08/25 07:24:17;;;;;;;2.58;1.85;;;25.50;99.90;;;;;;4981044;28;20222;-75
2022/08/25 07:26:46;;;;;;;3.47;2.17;;;25.50;99.90;;;;;;4978974;28;20197;-76
2022/08/25 07:29:15;;;;;;;1.90;1.80;;;25.70;99.90;;;;;;4979050;28;20209;-76
2022/08/25 07:31:42;;;;;;;2.40;2.20;;;25.90;99.90;;;;;;4976028;28;20210;-76
2022/08/25 07:36:57;;;;;;;2.75;2.00;;;26.10;99.90;;;;;;4977926;28;20289;-77
2022/08/25 07:39:26;;;;;;;2.33;1.90;;;26.10;99.90;;;;;;4980775;28;20205;-76
2022/08/25 07:41:53;;;;;;;2.65;2.42;;;26.10;99.90;;;;;;4977015;28;20203;-77
2022/08/25 07:44:22;;;;;;;3.75;2.35;;;26.20;99.90;;;;;;4980160;28;20217;-75
2022/08/25 07:46:49;;;;;;;1.90;1.80;;;26.40;99.90;;;;;;4980915;28;20569;-76
2022/08/25 07:49:19;;;;;;;2.10;1.90;;;26.50;99.90;;;;;;4975213;28;20217;-76
2022/08/25 07:51:46;;;;;;;2.83;1.98;;;26.70;99.90;;;;;;4978549;28;20684;-80
2022/08/25 07:54:13;;;;;;;2.47;2.28;;;26.80;99.90;;;;;;4972889;28;20221;-76
2022/08/25 07:56:41;;;;;;;2.10;2.00;;;26.80;99.90;;;;;;4975173;28;20206;-76
2022/08/25 07:59:09;;;;;;;2.28;2.08;;;26.80;99.90;;;;;;4977736;28;20221;-77
2022/08/25 08:01:36;;;;;;;2.60;2.40;;;26.90;99.90;;;;;;4977369;28;20198;-77
2022/08/25 08:04:04;;;;;;;3.17;2.05;;;26.90;99.90;;;;;;4977975;28;20230;-77
2022/08/25 08:06:33;;;;;;;1.88;1.70;;;26.90;99.90;;;;;;4969579;28;20312;-76
2022/08/25 08:09:01;;;;;;;2.20;2.00;;;27.00;99.90;;;;;;4974880;28;20243;-77
2022/08/25 08:11:31;;;;;;;2.35;2.15;;;27.20;99.90;;;;;;4973946;28;20248;-75
2022/08/25 08:14:00;;;;;;;2.63;1.90;;;27.20;99.90;;;;;;4978304;28;20217;-77
2022/08/25 08:16:29;;;;;;;1.98;1.88;;;27.20;99.90;;;;;;4976069;28;20217;-77
2022/08/25 08:18:57;;;;;;;2.05;1.90;;;27.30;99.90;;;;;;4979936;28;20225;-78
2022/08/25 08:21:27;;;;;;;3.72;1.80;;;27.40;99.90;;;;;;4980369;28;20738;-77
2022/08/25 08:23:57;;;;;;;1.75;1.63;;;27.50;99.90;;;;;;4984739;28;20344;-77
2022/08/25 08:26:26;;;;;;;2.88;2.10;;;27.70;99.90;;;;;;4979099;28;20213;-77
2022/08/25 08:28:54;;;;;;;2.10;1.90;;;27.80;99.90;;;;;;4974967;28;20218;-76
2022/08/25 08:31:23;;;;;;;1.60;1.50;;;27.90;99.90;;;;;;4971908;28;20217;-76
2022/08/25 08:33:51;;;;;;;2.08;1.92;;;28.30;99.90;;;;;;4972337;28;20888;-76
2022/08/25 08:36:18;;;;;;;2.08;1.98;;;28.50;99.90;;;;;;4967895;28;20281;-77
2022/08/25 08:38:46;;;;;;;1.92;1.80;;;28.60;99.90;;;;;;4967563;28;20201;-76
2022/08/25 08:44:26;;;;;;;1.80;1.70;;;28.20;99.90;;;;;;4967980;28;20224;-76
2022/08/25 08:47:03;;;;;;;2.42;1.70;;;28.10;99.90;;;;;;4967448;28;20664;-77
2022/08/25 08:49:39;;;;;;;1.83;1.70;;;28.20;99.90;;;;;;4971825;28;20722;-77
2022/08/25 08:52:08;;;;;;;2.15;1.95;;;28.30;99.90;;;;;;4969689;28;20220;-77
2022/08/25 08:54:39;;;;;;;2.10;2.00;;;28.20;99.90;;;;;;4972992;28;20228;-76
2022/08/25 08:57:15;;;;;;;7.18;2.10;;;28.10;99.90;;;;;;4971926;28;20221;-76
2022/08/25 08:59:51;;;;;;;2.17;2.00;;;28.20;99.90;;;;;;4963468;28;20304;-76
2022/08/25 09:02:34;;;;;;;1.80;1.67;;;28.40;99.90;;;;;;4971453;28;20205;-77
2022/08/25 09:05:04;;;;;;;1.88;1.60;;;28.40;99.90;;;;;;4974114;28;20225;-79
2022/08/25 09:07:39;;;;;;;1.80;1.70;;;28.40;99.90;;;;;;4974907;28;20225;-79
2022/08/25 09:10:07;;;;;;;1.85;1.70;;;28.60;99.90;;;;;;4970795;28;20542;-78
2022/08/25 09:12:41;;;;;;;5.80;1.90;;;28.90;99.90;;;;;;4974604;28;20599;-78
2022/08/25 09:15:17;;;;;;;1.80;1.70;;;28.90;99.90;;;;;;4973940;28;20228;-78
2022/08/25 09:18:04;;;;;;;1.92;1.80;;;28.80;99.90;;;;;;4974365;28;20200;-82
2022/08/25 09:20:46;;;;;;;1.80;1.70;;;29.00;99.90;;;;;;4975567;28;20337;-79
2022/08/25 09:23:25;;;;;;;2.03;1.85;;;29.00;99.90;;;;;;4981975;28;20201;-78
2022/08/25 09:26:01;;;;;;;1.92;1.73;;;29.00;99.90;;;;;;4975865;28;20228;-78
2022/08/25 09:28:35;;;;;;;1.80;1.70;;;29.00;99.90;;;;;;4977869;28;20228;-79
2022/08/25 09:31:05;;;;;;;2.53;2.10;;;29.10;99.90;;;;;;4975851;28;20221;-77
2022/08/25 09:33:34;;;;;;;1.80;1.70;;;29.30;99.90;;;;;;4976096;28;20228;-79
2022/08/25 09:36:01;;;;;;;1.90;1.80;;;29.30;99.90;;;;;;4976694;28;20232;-81
2022/08/25 09:38:29;;;;;;;2.15;1.95;;;29.50;99.90;;;;;;4978430;28;20198;-78
2022/08/25 09:40:59;;;;;;;1.80;1.70;;;29.70;99.90;;;;;;4976489;28;20225;-79
2022/08/25 09:43:33;;;;;;;2.15;1.95;;;29.80;99.90;;;;;;4973986;28;20222;-78
2022/08/25 09:46:03;;;;;;;1.80;1.70;;;29.90;99.90;;;;;;4974163;28;20222;-79
2022/08/25 09:48:36;;;;;;;3.28;2.00;;;30.00;99.90;;;;;;4972194;28;20229;-80
2022/08/25 09:51:17;;;;;;;2.00;1.80;;;29.90;99.90;;;;;;4968715;28;20284;-81
2022/08/25 09:53:50;;;;;;;3.53;1.67;;;29.90;99.90;;;;;;4972738;28;20785;-79
2022/08/25 09:56:20;;;;;;;2.28;1.75;;;30.00;99.90;;;;;;4972413;28;20225;-77
2022/08/25 09:58:50;;;;;;;1.65;1.55;;;29.80;99.90;;;;;;4977598;28;20198;-80
2022/08/25 10:01:19;;;;;;;1.85;1.75;;;29.80;99.90;;;;;;4976069;28;20265;-79
2022/08/25 10:03:58;;;;;;;1.90;1.80;;;29.90;99.90;;;;;;4972085;28;20687;-80
2022/08/25 10:06:28;;;;;;;1.80;1.50;;;29.90;99.90;;;;;;4972217;28;20296;-78
2022/08/25 10:09:00;;;;;;;1.63;1.52;;;30.00;99.90;;;;;;4973488;28;20228;-80
2022/08/25 10:11:43;;;;;;;1.73;1.63;;;30.10;99.90;;;;;;4972225;28;20221;-78
2022/08/25 10:14:27;;;;;;;2.40;1.60;;;30.40;99.90;;;;;;4978060;28;20281;-80
2022/08/25 10:17:12;;;;;;;2.13;1.70;;;30.40;99.90;;;;;;4976627;28;20257;-78
2022/08/25 10:19:40;;;;;;;1.73;1.63;;;30.50;99.90;;;;;;4979292;28;20229;-80
2022/08/25 10:22:09;;;;;;;1.83;1.70;;;30.30;99.90;;;;;;4980977;28;20208;-79
2022/08/25 10:24:38;;;;;;;1.58;1.48;;;30.20;99.90;;;;;;4986283;28;20228;-79
2022/08/25 10:27:15;;;;;;;3.85;1.60;;;30.20;99.90;;;;;;4975741;28;20203;-79
2022/08/25 10:30:15;;;;;;;1.75;1.58;;;30.30;99.90;;;;;;4978810;28;20225;-78
2022/08/25 10:32:54;;;;;;;3.78;1.75;;;30.30;99.90;;;;;;4965184;28;20229;-78
2022/08/25 10:35:29;;;;;;;3.75;1.60;;;30.80;99.90;;;;;;4979988;28;20245;-80
2022/08/25 10:38:07;;;;;;;2.42;1.80;;;30.80;99.90;;;;;;4980202;28;20196;-79
2022/08/25 10:40:40;;;;;;;2.63;1.63;;;30.90;99.90;;;;;;4971482;28;20229;-79
2022/08/25 10:43:15;;;;;;;3.45;1.70;;;31.00;99.90;;;;;;4974826;28;20205;-79
2022/08/25 10:45:48;;;;;;;1.30;1.15;;;31.10;99.90;;;;;;4981501;28;20216;-79
2022/08/25 10:48:47;;;;;;;3.22;1.50;;;31.20;99.90;;;;;;4977244;28;20205;-76
2022/08/25 10:51:52;;;;;;;1.42;1.33;;;31.20;99.90;;;;;;4974931;28;20227;-78
2022/08/25 10:54:34;;;;;;;2.80;1.48;;;31.00;99.90;;;;;;4940489;28;20249;-78
2022/08/25 10:57:11;;;;;;;1.50;1.40;;;31.00;99.90;;;;;;4980057;28;20205;-78
2022/08/25 10:59:51;;;;;;;1.95;1.50;;;31.10;99.90;;;;;;4975438;28;20316;-78
2022/08/25 11:02:51;;;;;;;1.60;1.50;;;31.10;99.90;;;;;;4975745;28;20197;-78
2022/08/25 11:05:25;;;;;;;1.90;1.50;;;31.10;99.90;;;;;;4976591;28;20229;-78
2022/08/25 11:07:59;;;;;;;2.08;1.58;;;31.20;99.90;;;;;;4980548;28;20568;-78
2022/08/25 11:10:32;;;;;;;1.60;1.50;;;31.40;99.90;;;;;;4971659;28;20245;-77
2022/08/25 11:13:04;;;;;;;1.83;1.60;;;31.30;99.90;;;;;;4974710;28;20209;-79
2022/08/25 11:15:38;;;;;;;1.50;1.40;;;31.30;99.90;;;;;;4974031;28;20229;-77
2022/08/25 11:18:09;;;;;;;1.60;1.50;;;31.40;99.90;;;;;;4971367;28;20198;-78
2022/08/25 11:20:43;;;;;;;2.10;1.88;;;31.60;99.90;;;;;;4971811;28;20218;-79
2022/08/25 11:23:17;;;;;;;1.90;1.50;;;31.70;99.90;;;;;;4974825;28;20729;-78
2022/08/25 11:25:47;;;;;;;1.65;1.55;;;31.80;99.90;;;;;;4997708;23;20777;-76
2022/08/25 11:28:21;;;;;;;1.45;1.35;;;31.80;99.90;;;;;;4985243;28;20225;-75
2022/08/25 11:30:51;;;;;;;1.75;1.65;;;31.80;99.90;;;;;;4992537;28;20220;-76
2022/08/25 11:33:19;;;;;;;2.28;1.27;;;31.70;99.90;;;;;;4992743;28;20207;-75
2022/08/25 11:35:51;;;;;;;1.50;1.40;;;31.70;99.90;;;;;;4990471;28;20225;-75
2022/08/25 11:38:33;;;;;;;1.60;1.50;;;31.90;99.90;;;;;;4987923;28;20306;-76
2022/08/25 11:41:14;;;;;;;1.85;1.40;;;31.90;99.90;;;;;;4990488;28;20243;-76
2022/08/25 11:43:55;;;;;;;2.25;1.55;;;31.80;99.90;;;;;;4985237;28;20270;-75
2022/08/25 11:46:42;;;;;;;3.00;1.50;;;31.80;99.90;;;;;;4987870;28;20252;-75
2022/08/25 11:49:30;;;;;;;1.50;1.40;;;32.30;99.90;;;;;;4990294;28;20284;-75
2022/08/25 11:51:57;;;;;;;1.50;1.40;;;32.50;99.90;;;;;;4986985;28;20209;-75
2022/08/25 11:54:28;;;;;;;1.30;1.20;;;32.40;99.90;;;;;;4992163;28;20228;-76
2022/08/25 11:57:01;;;;;;;1.50;1.40;;;32.50;99.90;;;;;;4986963;28;20197;-75
2022/08/25 12:00:01;;;;;;;1.40;1.30;;;32.80;99.90;;;;;;4985980;28;20252;-76
2022/08/25 12:02:33;;;;;;;2.63;1.50;;;32.90;99.70;;;;;;4990702;28;20201;-76
2022/08/25 12:05:03;;;;;;;2.67;1.38;;;32.60;99.90;;;;;;4984764;28;20240;-76
2022/08/25 12:11:00;;;;;;;2.00;1.60;;;32.30;99.40;;;;;;4983947;28;20733;-76
2022/08/25 12:13:43;;;;;;;3.00;1.77;;;32.10;99.90;;;;;;4987916;28;20391;-75
2022/08/25 12:16:44;;;;;;;2.85;1.70;;;32.10;99.50;;;;;;4987245;28;20221;-76
2022/08/25 12:19:27;;;;;;;1.60;1.20;;;32.20;99.90;;;;;;4981930;28;20193;-75
2022/08/25 12:21:58;;;;;;;2.25;1.50;;;32.30;99.90;;;;;;4989453;28;20204;-72
2022/08/25 12:24:48;;;;;;;2.08;1.70;;;32.30;99.70;;;;;;4992124;28;20216;-74
2022/08/25 12:27:25;;;;;;;1.90;1.73;;;32.40;97.90;;;;;;4984696;28;20189;-75
2022/08/25 12:29:56;;;;;;;2.10;1.30;;;32.50;98.00;;;;;;4990276;28;20232;-72
2022/08/25 12:32:45;;;;;;;1.60;1.50;;;32.60;97.80;;;;;;4990261;28;20197;-73
2022/08/25 12:35:25;;;;;;;1.63;1.52;;;32.50;97.10;;;;;;4979747;28;20228;-73
2022/08/25 12:38:00;;;;;;;1.98;1.50;;;32.70;96.60;;;;;;4988649;28;20189;-74
2022/08/25 12:40:32;;;;;;;1.40;1.30;;;32.60;96.00;;;;;;4982533;28;20228;-72
2022/08/25 12:43:09;;;;;;;2.25;1.50;;;32.60;96.50;;;;;;4983853;28;20208;-75
2022/08/25 12:45:47;;;;;;;2.60;1.48;;;32.50;96.10;;;;;;4989609;28;20227;-71
2022/08/25 12:48:41;;;;;;;2.20;1.40;;;32.50;96.40;;;;;;4991620;28;20197;-71
2022/08/25 12:51:16;;;;;;;1.85;1.20;;;32.50;95.90;;;;;;4985746;28;20225;-75
2022/08/25 12:53:47;;;;;;;1.85;1.70;;;32.50;96.30;;;;;;4989965;28;20204;-73
2022/08/25 12:56:26;;;;;;;1.52;1.40;;;32.50;96.30;;;;;;4986632;28;20252;-71
2022/08/25 12:59:01;;;;;;;2.33;1.70;;;32.50;95.90;;;;;;4985808;28;20204;-71
2022/08/25 13:01:40;;;;;;;2.97;1.60;;;32.50;95.80;;;;;;4979705;28;20212;-71
2022/08/25 13:04:42;;;;;;;1.83;1.40;;;32.50;95.70;;;;;;4990359;28;20201;-75
2022/08/25 13:07:43;;;;;;;1.45;1.30;;;32.70;93.90;;;;;;4988284;28;20258;-74
2022/08/25 13:10:40;;;;;;;2.35;1.50;;;32.80;94.40;;;;;;4984646;28;20217;-75
2022/08/25 13:13:16;;;;;;;1.48;1.38;;;33.10;94.60;;;;;;4988526;28;20209;-73
2022/08/25 13:15:45;;;;;;;1.45;1.33;;;33.30;93.90;;;;;;4988614;28;20589;-72
2022/08/25 13:18:20;;;;;;;1.40;1.30;;;33.20;94.00;;;;;;4982340;28;20224;-74
2022/08/25 13:20:49;;;;;;;1.63;1.52;;;33.20;94.10;;;;;;4990025;28;20220;-72
2022/08/25 13:23:22;;;;;;;1.67;1.50;;;33.10;93.70;;;;;;4986320;28;20201;-72